createdAt,value
2023-05-14T00:01:47.962Z,10.10
2023-05-14T00:04:15.733Z,10.10
2023-05-14T00:06:43.988Z,10.10
2023-05-14T00:09:11.679Z,10.10
2023-05-14T00:11:39.992Z,10.10
2023-05-14T00:14:07.725Z,10.10
2023-05-14T00:16:36.011Z,10.00
2023-05-14T00:19:04.162Z,10.00
2023-05-14T00:21:32.724Z,10.00
2023-05-14T00:24:00.538Z,10.00
2023-05-14T00:26:28.732Z,9.90
2023-05-14T00:28:56.881Z,9.80
2023-05-14T00:31:25.093Z,9.70
2023-05-14T00:33:52.906Z,9.70
2023-05-14T00:36:21.656Z,9.60
2023-05-14T00:38:49.820Z,9.40
2023-05-14T00:41:18.199Z,9.40
2023-05-14T00:43:46.742Z,9.30
2023-05-14T00:46:15.894Z,9.20
2023-05-14T00:48:44.623Z,9.20
2023-05-14T00:51:12.837Z,9.20
2023-05-14T00:53:40.710Z,9.20
2023-05-14T00:56:09.268Z,9.00
2023-05-14T00:58:36.906Z,9.00
2023-05-14T01:01:05.205Z,8.90
2023-05-14T01:03:34.839Z,8.90
2023-05-14T01:06:09.092Z,8.90
2023-05-14T01:09:07.916Z,8.90
2023-05-14T01:12:28.768Z,8.90
2023-05-14T01:14:59.635Z,8.90
2023-05-14T01:17:33.194Z,8.90
2023-05-14T01:20:02.195Z,9.00
2023-05-14T01:22:30.520Z,9.00
2023-05-14T01:24:58.275Z,9.00
2023-05-14T01:27:36.830Z,8.90
2023-05-14T01:30:08.535Z,8.90
2023-05-14T01:32:37.455Z,8.90
2023-05-14T01:35:08.038Z,8.80
2023-05-14T01:37:37.692Z,8.80
2023-05-14T01:40:07.939Z,8.80
2023-05-14T01:42:37.307Z,8.70
2023-05-14T01:45:06.316Z,8.70
2023-05-14T01:47:34.866Z,8.60
2023-05-14T01:50:02.870Z,8.60
2023-05-14T01:52:31.977Z,8.60
2023-05-14T01:55:00.379Z,8.60
2023-05-14T01:57:29.316Z,8.50
2023-05-14T01:59:57.127Z,8.30
2023-05-14T02:02:26.030Z,8.20
2023-05-14T02:04:53.881Z,8.00
2023-05-14T02:07:22.945Z,7.80
2023-05-14T02:09:50.801Z,7.80
2023-05-14T02:12:19.118Z,7.70
2023-05-14T02:14:47.157Z,7.70
2023-05-14T02:17:18.332Z,7.60
2023-05-14T02:19:46.608Z,7.60
2023-05-14T02:22:14.812Z,7.60
2023-05-14T02:24:43.678Z,7.60
2023-05-14T02:27:13.465Z,7.60
2023-05-14T02:29:41.598Z,7.60
2023-05-14T02:32:09.795Z,7.60
2023-05-14T02:34:37.610Z,7.60
2023-05-14T02:37:05.891Z,7.50
2023-05-14T02:39:33.634Z,7.60
2023-05-14T02:42:01.880Z,7.60
2023-05-14T02:44:32.121Z,7.60
2023-05-14T02:47:00.477Z,7.50
2023-05-14T02:49:28.373Z,7.50
2023-05-14T02:51:57.246Z,7.50
2023-05-14T02:54:24.966Z,7.50
2023-05-14T02:56:53.145Z,7.50
2023-05-14T02:59:20.890Z,7.50
2023-05-14T03:01:49.629Z,7.40
2023-05-14T03:04:18.133Z,7.40
2023-05-14T03:06:46.328Z,7.40
2023-05-14T03:09:14.677Z,7.40
2023-05-14T03:11:43.536Z,7.40
2023-05-14T03:14:11.307Z,7.40
2023-05-14T03:16:40.445Z,7.30
2023-05-14T03:19:10.404Z,7.30
2023-05-14T03:21:38.742Z,7.30
2023-05-14T03:24:06.639Z,7.30
2023-05-14T03:26:34.935Z,7.40
2023-05-14T03:29:03.574Z,7.40
2023-05-14T03:31:32.353Z,7.40
2023-05-14T03:34:01.137Z,7.40
2023-05-14T03:36:29.635Z,7.40
2023-05-14T03:38:57.672Z,7.40
2023-05-14T03:41:26.537Z,7.50
2023-05-14T03:43:54.480Z,7.50
2023-05-14T03:46:23.525Z,7.50
2023-05-14T03:48:51.426Z,7.60
2023-05-14T03:51:19.791Z,7.70
2023-05-14T03:53:47.631Z,7.80
2023-05-14T03:56:16.607Z,8.00
2023-05-14T03:58:44.547Z,8.00
2023-05-14T04:01:13.137Z,8.00
2023-05-14T04:03:41.082Z,8.00
2023-05-14T04:06:09.781Z,8.00
2023-05-14T04:08:37.566Z,8.00
2023-05-14T04:11:06.131Z,8.00
2023-05-14T04:13:33.994Z,8.20
2023-05-14T04:16:02.572Z,8.40
2023-05-14T04:18:31.263Z,8.60
2023-05-14T04:20:59.473Z,9.00
2023-05-14T04:23:28.438Z,9.40
2023-05-14T04:25:56.636Z,9.80
2023-05-14T04:28:24.446Z,10.00
2023-05-14T04:30:52.997Z,10.10
2023-05-14T04:33:21.528Z,10.40
2023-05-14T04:35:49.697Z,10.70
2023-05-14T04:38:17.491Z,11.00
2023-05-14T04:40:45.754Z,11.50
2023-05-14T04:43:13.585Z,11.90
2023-05-14T04:45:41.710Z,12.30
2023-05-14T04:48:09.863Z,12.70
2023-05-14T04:50:38.054Z,13.10
2023-05-14T04:53:06.719Z,13.30
2023-05-14T04:55:35.616Z,13.60
2023-05-14T04:58:03.439Z,13.90
2023-05-14T05:00:31.769Z,14.30
2023-05-14T05:02:59.544Z,14.90
2023-05-14T05:05:27.874Z,15.60
2023-05-14T05:07:57.024Z,16.10
2023-05-14T05:10:25.880Z,16.60
2023-05-14T05:12:53.809Z,17.20
2023-05-14T05:15:21.905Z,17.70
2023-05-14T05:17:49.864Z,18.10
2023-05-14T05:20:18.128Z,18.30
2023-05-14T05:22:45.811Z,18.60
2023-05-14T05:25:14.259Z,18.70
2023-05-14T05:27:42.018Z,18.90
2023-05-14T05:30:10.742Z,19.10
2023-05-14T05:32:38.627Z,19.20
2023-05-14T05:35:07.427Z,19.20
2023-05-14T05:37:36.075Z,19.10
2023-05-14T05:40:06.279Z,19.10
2023-05-14T05:42:34.066Z,19.20
2023-05-14T05:45:02.385Z,19.50
2023-05-14T05:47:30.771Z,20.00
2023-05-14T05:49:59.001Z,20.70
2023-05-14T05:52:26.882Z,21.40
2023-05-14T05:54:55.380Z,21.70
2023-05-14T05:57:26.242Z,22.20
2023-05-14T05:59:57.065Z,22.70
2023-05-14T06:02:25.674Z,22.70
2023-05-14T06:04:54.260Z,22.40
2023-05-14T06:07:22.267Z,21.80
2023-05-14T06:09:50.623Z,21.50
2023-05-14T06:12:18.349Z,21.20
2023-05-14T06:14:47.110Z,21.10
2023-05-14T06:17:14.882Z,21.50
2023-05-14T06:19:43.257Z,22.00
2023-05-14T06:22:11.297Z,22.50
2023-05-14T06:24:40.046Z,22.80
2023-05-14T06:27:08.167Z,23.00
2023-05-14T06:29:36.229Z,22.60
2023-05-14T06:32:05.088Z,22.30
2023-05-14T06:34:33.664Z,22.20
2023-05-14T06:37:03.104Z,22.20
2023-05-14T06:39:31.586Z,21.90
2023-05-14T06:41:59.571Z,21.80
2023-05-14T06:44:28.036Z,21.70
2023-05-14T06:46:56.158Z,21.50
2023-05-14T06:49:26.581Z,21.10
2023-05-14T06:51:54.613Z,20.80
2023-05-14T06:54:24.943Z,20.50
2023-05-14T06:56:53.628Z,20.00
2023-05-14T06:59:22.472Z,19.50
2023-05-14T07:01:50.792Z,19.30
2023-05-14T07:04:19.605Z,19.20
2023-05-14T07:06:47.553Z,19.50
2023-05-14T07:09:17.731Z,20.00
2023-05-14T07:11:45.353Z,20.40
2023-05-14T07:14:13.760Z,20.80
2023-05-14T07:16:43.139Z,21.40
2023-05-14T07:19:11.523Z,21.70
2023-05-14T07:21:39.689Z,22.20
2023-05-14T07:24:08.181Z,22.90
2023-05-14T07:26:36.243Z,23.70
2023-05-14T07:29:04.711Z,24.20
2023-05-14T07:31:33.051Z,24.40
2023-05-14T07:34:01.263Z,24.20
2023-05-14T07:36:29.106Z,24.00
2023-05-14T07:38:57.406Z,23.80
2023-05-14T07:41:25.166Z,23.60
2023-05-14T07:43:53.516Z,23.60
2023-05-14T07:46:21.353Z,23.80
2023-05-14T07:48:50.729Z,23.70
2023-05-14T07:51:18.615Z,23.40
2023-05-14T07:53:46.853Z,22.90
2023-05-14T07:56:15.217Z,22.60
2023-05-14T07:58:43.608Z,22.30
2023-05-14T08:01:13.205Z,22.10
2023-05-14T08:03:41.678Z,21.70
2023-05-14T08:06:09.594Z,21.40
2023-05-14T08:08:38.013Z,21.10
2023-05-14T08:11:06.175Z,21.10
2023-05-14T08:13:34.576Z,21.10
2023-05-14T08:16:02.536Z,21.00
2023-05-14T08:18:31.119Z,20.60
2023-05-14T08:20:59.002Z,20.30
2023-05-14T08:23:27.972Z,19.90
2023-05-14T08:25:55.953Z,19.70
2023-05-14T08:28:25.313Z,19.40
2023-05-14T08:30:53.237Z,19.20
2023-05-14T08:33:21.724Z,19.20
2023-05-14T08:35:53.356Z,19.30
2023-05-14T08:38:21.920Z,19.60
2023-05-14T08:41:00.235Z,20.00
2023-05-14T08:43:36.034Z,20.30
2023-05-14T08:46:06.684Z,20.40
2023-05-14T08:48:36.488Z,20.50
2023-05-14T08:51:04.901Z,21.10
2023-05-14T08:53:34.063Z,21.90
2023-05-14T08:56:07.357Z,23.00
2023-05-14T08:58:35.783Z,24.20
2023-05-14T09:01:04.307Z,25.00
2023-05-14T09:03:35.311Z,25.50
2023-05-14T09:06:04.836Z,26.10
2023-05-14T09:08:33.720Z,26.40
2023-05-14T09:11:01.450Z,26.90
2023-05-14T09:13:29.895Z,27.60
2023-05-14T09:16:00.337Z,28.10
2023-05-14T09:18:28.768Z,28.70
2023-05-14T09:20:56.792Z,28.90
2023-05-14T09:23:27.549Z,27.80
2023-05-14T09:25:55.361Z,26.90
2023-05-14T09:28:28.535Z,26.70
2023-05-14T09:30:56.623Z,26.40
2023-05-14T09:33:29.531Z,25.50
2023-05-14T09:36:01.696Z,24.40
2023-05-14T09:38:34.406Z,23.90
2023-05-14T09:41:04.841Z,23.90
2023-05-14T09:43:33.059Z,23.80
2023-05-14T09:46:01.358Z,24.10
2023-05-14T09:48:30.053Z,24.80
2023-05-14T09:50:58.004Z,25.90
2023-05-14T09:53:26.662Z,27.40
2023-05-14T09:55:54.481Z,28.30
2023-05-14T09:58:22.889Z,29.00
2023-05-14T10:00:53.672Z,29.90
2023-05-14T10:03:23.377Z,30.50
2023-05-14T10:05:52.555Z,30.80
2023-05-14T10:08:27.136Z,31.20
2023-05-14T10:10:56.227Z,31.10
2023-05-14T10:13:31.148Z,31.00
2023-05-14T10:16:14.018Z,30.60
2023-05-14T10:18:48.711Z,30.50
2023-05-14T10:21:37.061Z,30.50
2023-05-14T10:24:06.776Z,28.70
2023-05-14T10:26:39.836Z,27.70
2023-05-14T10:29:11.194Z,27.50
2023-05-14T10:31:54.205Z,28.30
2023-05-14T10:34:46.568Z,29.20
2023-05-14T10:37:26.425Z,29.00
2023-05-14T10:40:01.931Z,29.50
2023-05-14T10:42:37.944Z,30.30
2023-05-14T10:45:08.777Z,30.30
2023-05-14T10:47:37.241Z,28.90
2023-05-14T10:50:11.297Z,27.50
2023-05-14T10:52:41.325Z,26.80
2023-05-14T10:55:12.867Z,26.10
2023-05-14T10:57:43.755Z,25.70
2023-05-14T11:00:14.982Z,25.60
2023-05-14T11:02:45.202Z,25.20
2023-05-14T11:05:17.654Z,24.80
2023-05-14T11:07:48.679Z,24.40
2023-05-14T11:10:19.579Z,24.00
2023-05-14T11:12:49.358Z,23.60
2023-05-14T11:15:22.355Z,23.30
2023-05-14T11:17:51.495Z,23.00
2023-05-14T11:20:21.155Z,22.90
2023-05-14T11:22:51.987Z,22.60
2023-05-14T11:25:22.120Z,22.20
2023-05-14T11:27:51.113Z,21.90
2023-05-14T11:30:20.767Z,21.70
2023-05-14T11:32:50.877Z,21.50
2023-05-14T11:35:19.212Z,21.30
2023-05-14T11:37:53.557Z,21.20
2023-05-14T11:40:22.296Z,21.20
2023-05-14T11:42:53.774Z,21.30
2023-05-14T11:45:26.972Z,21.10
2023-05-14T11:47:57.636Z,21.00
2023-05-14T11:50:27.066Z,20.80
2023-05-14T11:52:58.586Z,20.70
2023-05-14T11:55:27.260Z,20.70
2023-05-14T11:57:55.396Z,20.80
2023-05-14T12:00:25.022Z,20.80
2023-05-14T12:02:53.453Z,20.70
2023-05-14T12:05:22.734Z,20.70
2023-05-14T12:07:50.794Z,20.70
2023-05-14T12:10:18.962Z,20.70
2023-05-14T12:12:48.482Z,20.60
2023-05-14T12:15:17.648Z,20.50
2023-05-14T12:17:52.235Z,20.50
2023-05-14T12:20:20.666Z,20.50
2023-05-14T12:22:48.562Z,20.40
2023-05-14T12:25:17.321Z,20.30
2023-05-14T12:27:45.849Z,20.30
2023-05-14T12:32:46.357Z,20.10
2023-05-14T12:35:15.866Z,20.00
2023-05-14T12:37:43.981Z,19.90
2023-05-14T12:40:12.645Z,19.70
2023-05-14T12:42:40.584Z,19.70
2023-05-14T12:45:09.302Z,19.80
2023-05-14T12:47:37.738Z,19.90
2023-05-14T12:50:06.750Z,20.00
2023-05-14T12:52:39.329Z,20.30
2023-05-14T12:55:09.748Z,20.40
2023-05-14T12:57:39.614Z,20.50
2023-05-14T13:00:14.107Z,20.60
2023-05-14T13:02:43.676Z,20.70
2023-05-14T13:05:13.103Z,20.80
2023-05-14T13:07:41.428Z,20.80
2023-05-14T13:10:10.494Z,20.80
2023-05-14T13:12:38.994Z,20.80
2023-05-14T13:15:08.176Z,20.80
2023-05-14T13:17:36.957Z,20.70
2023-05-14T13:20:05.707Z,20.70
2023-05-14T13:22:34.564Z,20.70
2023-05-14T13:25:03.530Z,20.50
2023-05-14T13:27:31.475Z,20.50
2023-05-14T13:30:00.592Z,20.50
2023-05-14T13:32:28.460Z,20.40
2023-05-14T13:34:56.791Z,20.40
2023-05-14T13:37:26.007Z,20.40
2023-05-14T13:39:54.347Z,20.40
2023-05-14T13:42:24.065Z,20.40
2023-05-14T13:44:52.261Z,20.30
2023-05-14T13:47:20.206Z,20.30
2023-05-14T13:49:48.470Z,20.30
2023-05-14T13:52:16.642Z,20.40
2023-05-14T13:54:45.282Z,20.60
2023-05-14T13:57:12.997Z,20.90
2023-05-14T13:59:41.612Z,21.30
2023-05-14T14:02:09.733Z,21.60
2023-05-14T14:04:38.105Z,21.90
2023-05-14T14:07:06.036Z,21.90
2023-05-14T14:09:37.063Z,21.90
2023-05-14T14:12:06.139Z,21.90
2023-05-14T14:14:34.441Z,22.00
2023-05-14T14:17:02.280Z,22.20
2023-05-14T14:19:30.572Z,22.30
2023-05-14T14:21:58.426Z,22.50
2023-05-14T14:24:26.634Z,22.50
2023-05-14T14:26:54.502Z,22.40
2023-05-14T14:29:24.361Z,22.20
2023-05-14T14:31:52.363Z,22.00
2023-05-14T14:34:21.136Z,21.90
2023-05-14T14:36:49.052Z,21.70
2023-05-14T14:39:17.313Z,21.70
2023-05-14T14:41:45.435Z,21.50
2023-05-14T14:44:13.662Z,21.40
2023-05-14T14:46:43.265Z,21.20
2023-05-14T14:49:11.895Z,21.10
2023-05-14T14:51:39.981Z,21.00
2023-05-14T14:54:08.494Z,20.90
2023-05-14T14:56:36.348Z,20.90
2023-05-14T14:59:04.373Z,20.90
2023-05-14T15:01:32.661Z,21.00
2023-05-14T15:04:00.891Z,21.00
2023-05-14T15:06:29.698Z,21.10
2023-05-14T15:08:58.220Z,21.30
2023-05-14T15:11:26.345Z,21.30
2023-05-14T15:13:55.290Z,21.40
2023-05-14T15:16:22.864Z,21.40
2023-05-14T15:18:51.172Z,21.30
2023-05-14T15:21:19.453Z,21.20
2023-05-14T15:23:48.436Z,21.10
2023-05-14T15:26:16.368Z,21.00
2023-05-14T15:28:44.747Z,20.90
2023-05-14T15:31:12.878Z,20.70
2023-05-14T15:33:42.436Z,20.60
2023-05-14T15:36:10.406Z,20.60
2023-05-14T15:38:38.740Z,20.70
2023-05-14T15:41:06.945Z,20.70
2023-05-14T15:43:35.718Z,20.70
2023-05-14T15:46:04.011Z,20.80
2023-05-14T15:48:32.290Z,20.90
2023-05-14T15:51:03.232Z,21.00
2023-05-14T15:53:31.764Z,21.10
2023-05-14T15:55:59.564Z,21.10
2023-05-14T15:58:27.855Z,21.00
2023-05-14T16:00:56.332Z,20.90
2023-05-14T16:03:25.069Z,20.90
2023-05-14T16:05:53.226Z,20.90
2023-05-14T16:08:21.804Z,21.10
2023-05-14T16:10:50.115Z,21.20
2023-05-14T16:13:18.833Z,21.30
2023-05-14T16:15:47.181Z,21.30
2023-05-14T16:18:16.756Z,21.20
2023-05-14T16:20:45.996Z,21.30
2023-05-14T16:23:14.291Z,21.10
2023-05-14T16:25:42.104Z,21.00
2023-05-14T16:28:10.475Z,20.90
2023-05-14T16:30:39.500Z,20.80
2023-05-14T16:33:08.456Z,20.70
2023-05-14T16:35:36.485Z,20.60
2023-05-14T16:38:05.781Z,20.40
2023-05-14T16:40:33.593Z,20.30
2023-05-14T16:43:02.079Z,20.10
2023-05-14T16:45:31.857Z,20.00
2023-05-14T16:48:01.697Z,19.90
2023-05-14T16:50:30.203Z,19.90
2023-05-14T16:52:58.527Z,19.70
2023-05-14T16:55:26.911Z,19.70
2023-05-14T16:57:55.760Z,19.70
2023-05-14T17:00:23.940Z,19.70
2023-05-14T17:02:54.569Z,19.70
2023-05-14T17:05:27.352Z,19.70
2023-05-14T17:08:00.585Z,19.60
2023-05-14T17:10:28.624Z,19.50
2023-05-14T17:12:56.958Z,19.40
2023-05-14T17:15:43.008Z,19.30
2023-05-14T17:18:12.358Z,19.30
2023-05-14T17:20:42.833Z,19.20
2023-05-14T17:23:10.806Z,19.20
2023-05-14T17:25:42.051Z,19.10
2023-05-14T17:28:09.964Z,19.00
2023-05-14T17:30:38.332Z,18.90
2023-05-14T17:33:07.933Z,18.80
2023-05-14T17:35:37.644Z,18.70
2023-05-14T17:38:05.630Z,18.50
2023-05-14T17:40:34.862Z,18.30
2023-05-14T17:43:02.819Z,18.20
2023-05-14T17:45:39.295Z,18.00
2023-05-14T17:48:10.886Z,18.00
2023-05-14T17:50:40.024Z,17.80
2023-05-14T17:53:07.992Z,17.60
2023-05-14T17:55:43.963Z,17.50
2023-05-14T17:58:16.478Z,17.40
2023-05-14T18:00:45.421Z,17.20
2023-05-14T18:03:15.524Z,17.20
2023-05-14T18:05:44.559Z,17.00
2023-05-14T18:08:13.850Z,16.90
2023-05-14T18:10:42.778Z,16.80
2023-05-14T18:13:10.824Z,16.70
2023-05-14T18:15:39.588Z,16.60
2023-05-14T18:18:07.505Z,16.50
2023-05-14T18:20:37.185Z,16.40
2023-05-14T18:23:05.031Z,16.20
2023-05-14T18:25:34.481Z,16.20
2023-05-14T18:28:04.143Z,16.10
2023-05-14T18:30:34.886Z,16.00
2023-05-14T18:33:02.822Z,15.90
2023-05-14T18:35:32.019Z,15.90
2023-05-14T18:38:00.211Z,15.80
2023-05-14T18:40:31.157Z,15.80
2023-05-14T18:42:59.656Z,15.80
2023-05-14T18:45:32.475Z,15.70
2023-05-14T18:48:00.499Z,15.60
2023-05-14T18:50:31.239Z,15.60
2023-05-14T18:52:59.800Z,15.60
2023-05-14T18:55:28.825Z,15.50
2023-05-14T18:57:57.518Z,15.50
2023-05-14T19:00:26.135Z,15.40
2023-05-14T19:02:54.338Z,15.40
2023-05-14T19:05:23.117Z,15.40
2023-05-14T19:07:51.959Z,15.30
2023-05-14T19:10:24.243Z,15.30
2023-05-14T19:12:52.828Z,15.20
2023-05-14T19:15:21.971Z,15.20
2023-05-14T19:17:50.369Z,15.10
2023-05-14T19:20:20.382Z,15.00
2023-05-14T19:22:49.712Z,15.00
2023-05-14T19:25:19.566Z,15.00
2023-05-14T19:27:52.083Z,14.90
2023-05-14T19:30:23.793Z,14.90
2023-05-14T19:32:52.729Z,14.90
2023-05-14T19:35:24.156Z,14.80
2023-05-14T19:37:52.756Z,14.80
2023-05-14T19:40:22.619Z,14.80
2023-05-14T19:42:50.550Z,14.70
2023-05-14T19:45:18.810Z,14.70
2023-05-14T19:47:47.701Z,14.70
2023-05-14T19:50:19.093Z,14.70
2023-05-14T19:52:47.719Z,14.70
2023-05-14T19:55:16.140Z,14.60
2023-05-14T19:57:45.552Z,14.60
2023-05-14T20:00:15.278Z,14.50
2023-05-14T20:02:44.051Z,14.50
2023-05-14T20:05:13.738Z,14.50
2023-05-14T20:07:43.878Z,14.40
2023-05-14T20:10:13.637Z,14.40
2023-05-14T20:12:41.749Z,14.40
2023-05-14T20:15:11.587Z,14.30
2023-05-14T20:17:40.496Z,14.30
2023-05-14T20:20:10.761Z,14.20
2023-05-14T20:22:38.973Z,14.20
2023-05-14T20:25:09.365Z,14.20
2023-05-14T20:27:37.740Z,14.10
2023-05-14T20:30:07.063Z,14.10
2023-05-14T20:32:35.482Z,14.00
2023-05-14T20:35:04.012Z,14.00
2023-05-14T20:37:33.472Z,13.90
2023-05-14T20:40:06.521Z,13.90
2023-05-14T20:42:36.717Z,13.80
2023-05-14T20:45:06.566Z,13.70
2023-05-14T20:47:34.452Z,13.60
2023-05-14T20:50:02.982Z,13.50
2023-05-14T20:52:30.832Z,13.50
2023-05-14T20:55:01.537Z,13.30
2023-05-14T20:57:31.537Z,13.30
2023-05-14T20:59:59.761Z,13.20
2023-05-14T21:02:27.682Z,13.20
2023-05-14T21:04:56.028Z,13.10
2023-05-14T21:07:24.049Z,13.10
2023-05-14T21:09:52.986Z,13.10
2023-05-14T21:12:22.012Z,13.10
2023-05-14T21:14:50.723Z,13.00
2023-05-14T21:17:18.478Z,13.00
2023-05-14T21:19:48.712Z,13.00
2023-05-14T21:22:16.708Z,13.00
2023-05-14T21:24:44.885Z,13.00
2023-05-14T21:27:12.969Z,13.10
2023-05-14T21:29:41.393Z,13.10
2023-05-14T21:32:09.662Z,13.10
2023-05-14T21:34:38.252Z,13.10
2023-05-14T21:37:06.483Z,13.10
2023-05-14T21:39:35.293Z,13.10
2023-05-14T21:42:03.044Z,13.20
2023-05-14T21:44:31.367Z,13.10
2023-05-14T21:46:59.495Z,13.00
2023-05-14T21:49:28.783Z,13.00
2023-05-14T21:51:56.573Z,12.90
2023-05-14T21:54:25.255Z,12.90
2023-05-14T21:56:53.392Z,13.00
2023-05-14T21:59:21.853Z,12.90
2023-05-14T22:04:21.528Z,12.90
2023-05-14T22:06:52.073Z,13.00
2023-05-14T22:09:20.488Z,13.00
2023-05-14T22:11:49.516Z,13.10
2023-05-14T22:14:17.640Z,13.10
2023-05-14T22:16:45.773Z,13.20
2023-05-14T22:19:16.217Z,13.20
2023-05-14T22:21:44.404Z,13.30
2023-05-14T22:24:12.661Z,13.20
2023-05-14T22:26:40.396Z,13.20
2023-05-14T22:29:09.820Z,13.10
2023-05-14T22:31:37.761Z,13.10
2023-05-14T22:34:06.137Z,13.10
2023-05-14T22:36:34.221Z,13.00
2023-05-14T22:39:02.520Z,12.90
2023-05-14T22:41:31.221Z,12.80
2023-05-14T22:43:59.425Z,12.70
2023-05-14T22:46:27.919Z,12.70
2023-05-14T22:48:57.402Z,12.70
2023-05-14T22:51:25.901Z,12.60
2023-05-14T22:53:54.995Z,12.50
2023-05-14T22:56:22.954Z,12.50
2023-05-14T22:58:51.303Z,12.50
2023-05-14T23:01:19.091Z,12.50
2023-05-14T23:03:48.013Z,12.50
2023-05-14T23:06:15.851Z,12.50
2023-05-14T23:08:44.059Z,12.50
2023-05-14T23:11:11.941Z,12.50
2023-05-14T23:13:40.248Z,12.50
2023-05-14T23:16:08.340Z,12.50
2023-05-14T23:18:36.559Z,12.50
2023-05-14T23:21:04.550Z,12.50
2023-05-14T23:23:33.063Z,12.50
2023-05-14T23:26:01.127Z,12.50
2023-05-14T23:28:31.590Z,12.40
2023-05-14T23:30:59.561Z,12.40
2023-05-14T23:33:27.765Z,12.40
2023-05-14T23:35:55.945Z,12.40
2023-05-14T23:38:24.798Z,12.40
2023-05-14T23:40:52.967Z,12.30
2023-05-14T23:43:21.240Z,12.30
2023-05-14T23:45:49.218Z,12.30
2023-05-14T23:48:18.488Z,12.30
2023-05-14T23:50:46.429Z,12.40
2023-05-14T23:53:15.048Z,12.40
2023-05-14T23:55:42.860Z,12.50
2023-05-14T23:58:11.377Z,12.40
